Accueil
METAR-TAF:

METAR-TAF

Aéroports :

Aéroport international de Khartoum

Khartoum, Soudan

latitude: 15-36N, longitude: 032-33E, altitude: 382 m

Observation

Le bulletin a été fait il y a 24 minutes, à 21:00 UTC
Vent 8 kt de sud
Température 29°C
Humidité 58%
Pression 1011 hPa
Visibilité 10 km ou plus
pas de nuages en-dessous de 1500 mètres et pas de cumulonimbus.

METAR: HSSS 192100Z 18008KT CAVOK 29/20 Q1011 NOSIG

Heure: 00:24 (21:24 UTC)

Prévision

Le bulletin a été fait il y a 4 heures et 24 minutes, à 17:00 UTC
Prévision valable du 19 à 18 UTC au 20 à 24 UTC
Vent 8 kt de sud/sud-ouest avec des rafales jusqu'à 18 kt
Visibilité 10 km ou plus
Quelques nuages à une hauteur de 4000 ft
Nuages épars à une hauteur de 14000 ft
Temporairement
du 19 à 18 UTC au 19 à 24 UTC
Visibilité: 8000 m
Nuages fragmentés à une hauteur de 14000 ft
averses de pluie

TAF: HSSS 191700Z 1918/2024 21008G18KT 9999 FEW040 SCT140 TEMPO 1918/1924 8000 SHRA BKN140

Observations et prévisions météorologiques de plus de 4000 aéroports (messages METAR et TAF).

Les stations disponibles sont représentées par des disques jaunes et rouges sur la carte.

Passer la souris dessus pour voir le nom de la station.

Cliquer dessus pour voir les observations et prévisions météorologiques.

Pour changer de carte: cliquez sur les boutons verts avec une croix noire pour zoomer, sur le bouton vert avec un tiret pour effectuer un zoom arrière, ou sur les flèches vertes pour les cartes adjacentes.


METAR-TAF: